sensor_id;sensor_type;location;lat;lon;timestamp;temperature;humidity
68354;DHT22;55274;43.060;25.618;2022-11-20T00:02:16;15.80;99.90
68354;DHT22;55274;43.060;25.618;2022-11-20T00:04:42;16.00;99.90
68354;DHT22;55274;43.060;25.618;2022-11-20T00:07:08;16.10;99.90
68354;DHT22;55274;43.060;25.618;2022-11-20T00:09:34;16.00;99.90
68354;DHT22;55274;43.060;25.618;2022-11-20T00:11:59;16.10;99.90
68354;DHT22;55274;43.060;25.618;2022-11-20T00:14:25;16.00;99.90
68354;DHT22;55274;43.060;25.618;2022-11-20T00:16:51;15.90;99.90
68354;DHT22;55274;43.060;25.618;2022-11-20T00:19:16;15.90;99.90
68354;DHT22;55274;43.060;25.618;2022-11-20T00:21:42;15.80;99.90
68354;DHT22;55274;43.060;25.618;2022-11-20T00:24:09;15.80;99.90
68354;DHT22;55274;43.060;25.618;2022-11-20T00:26:36;15.80;99.90
68354;DHT22;55274;43.060;25.618;2022-11-20T00:29:02;15.80;99.90
68354;DHT22;55274;43.060;25.618;2022-11-20T00:31:29;15.90;99.90
68354;DHT22;55274;43.060;25.618;2022-11-20T00:33:55;16.00;99.90
68354;DHT22;55274;43.060;25.618;2022-11-20T00:36:26;16.20;99.90
68354;DHT22;55274;43.060;25.618;2022-11-20T00:38:57;17.00;99.90
68354;DHT22;55274;43.060;25.618;2022-11-20T00:41:24;17.40;99.90
68354;DHT22;55274;43.060;25.618;2022-11-20T00:43:51;17.60;99.90
68354;DHT22;55274;43.060;25.618;2022-11-20T00:46:19;17.60;99.90
68354;DHT22;55274;43.060;25.618;2022-11-20T00:48:45;17.50;99.90
68354;DHT22;55274;43.060;25.618;2022-11-20T00:51:13;17.40;99.90
68354;DHT22;55274;43.060;25.618;2022-11-20T00:53:39;17.30;99.90
68354;DHT22;55274;43.060;25.618;2022-11-20T00:56:07;17.20;99.90
68354;DHT22;55274;43.060;25.618;2022-11-20T00:58:38;17.20;99.90
68354;DHT22;55274;43.060;25.618;2022-11-20T01:01:10;17.30;99.90
68354;DHT22;55274;43.060;25.618;2022-11-20T01:03:38;17.40;99.90
68354;DHT22;55274;43.060;25.618;2022-11-20T01:06:11;17.40;99.90
68354;DHT22;55274;43.060;25.618;2022-11-20T01:08:37;17.50;99.90
68354;DHT22;55274;43.060;25.618;2022-11-20T01:11:07;18.00;99.90
68354;DHT22;55274;43.060;25.618;2022-11-20T01:13:34;18.10;99.90
68354;DHT22;55274;43.060;25.618;2022-11-20T01:18:34;18.50;99.30
68354;DHT22;55274;43.060;25.618;2022-11-20T01:21:04;18.50;99.00
68354;DHT22;55274;43.060;25.618;2022-11-20T01:23:31;18.80;97.90
68354;DHT22;55274;43.060;25.618;2022-11-20T01:26:00;18.80;97.40
68354;DHT22;55274;43.060;25.618;2022-11-20T01:28:26;18.90;96.90
68354;DHT22;55274;43.060;25.618;2022-11-20T01:30:52;18.90;97.00
68354;DHT22;55274;43.060;25.618;2022-11-20T01:33:17;18.90;96.70
68354;DHT22;55274;43.060;25.618;2022-11-20T01:35:43;18.90;96.40
68354;DHT22;55274;43.060;25.618;2022-11-20T01:38:09;18.90;96.30
68354;DHT22;55274;43.060;25.618;2022-11-20T01:40:35;19.00;96.00
68354;DHT22;55274;43.060;25.618;2022-11-20T01:43:33;19.00;96.20
68354;DHT22;55274;43.060;25.618;2022-11-20T01:46:12;19.00;95.70
68354;DHT22;55274;43.060;25.618;2022-11-20T01:48:44;19.10;95.50
68354;DHT22;55274;43.060;25.618;2022-11-20T01:51:25;19.10;95.20
68354;DHT22;55274;43.060;25.618;2022-11-20T01:53:55;19.20;94.70
68354;DHT22;55274;43.060;25.618;2022-11-20T01:56:24;19.10;94.80
68354;DHT22;55274;43.060;25.618;2022-11-20T01:58:54;19.00;95.20
68354;DHT22;55274;43.060;25.618;2022-11-20T02:01:22;19.00;95.50
68354;DHT22;55274;43.060;25.618;2022-11-20T02:03:48;19.00;95.40
68354;DHT22;55274;43.060;25.618;2022-11-20T02:06:27;18.90;95.70
68354;DHT22;55274;43.060;25.618;2022-11-20T02:08:54;18.80;96.30
68354;DHT22;55274;43.060;25.618;2022-11-20T02:11:21;18.90;96.00
68354;DHT22;55274;43.060;25.618;2022-11-20T02:13:47;19.00;95.20
68354;DHT22;55274;43.060;25.618;2022-11-20T02:16:31;18.90;95.40
68354;DHT22;55274;43.060;25.618;2022-11-20T02:18:59;18.90;95.60
68354;DHT22;55274;43.060;25.618;2022-11-20T02:21:41;18.90;95.30
68354;DHT22;55274;43.060;25.618;2022-11-20T02:24:09;18.90;95.20
68354;DHT22;55274;43.060;25.618;2022-11-20T02:26:59;19.00;94.80
68354;DHT22;55274;43.060;25.618;2022-11-20T02:29:42;19.00;94.70
68354;DHT22;55274;43.060;25.618;2022-11-20T02:32:34;19.00;94.60
68354;DHT22;55274;43.060;25.618;2022-11-20T02:37:48;19.10;94.00
68354;DHT22;55274;43.060;25.618;2022-11-20T02:40:16;19.10;94.00
68354;DHT22;55274;43.060;25.618;2022-11-20T02:42:42;19.00;94.20
68354;DHT22;55274;43.060;25.618;2022-11-20T02:45:08;19.10;94.10
68354;DHT22;55274;43.060;25.618;2022-11-20T02:47:34;19.10;93.80
68354;DHT22;55274;43.060;25.618;2022-11-20T02:50:00;19.10;93.60
68354;DHT22;55274;43.060;25.618;2022-11-20T02:52:26;19.20;93.30
68354;DHT22;55274;43.060;25.618;2022-11-20T02:54:52;19.20;93.00
68354;DHT22;55274;43.060;25.618;2022-11-20T02:57:17;19.20;92.80
68354;DHT22;55274;43.060;25.618;2022-11-20T02:59:43;19.20;92.80
68354;DHT22;55274;43.060;25.618;2022-11-20T03:02:09;19.20;92.50
68354;DHT22;55274;43.060;25.618;2022-11-20T03:04:35;19.20;92.70
68354;DHT22;55274;43.060;25.618;2022-11-20T03:07:01;19.20;92.70
68354;DHT22;55274;43.060;25.618;2022-11-20T03:09:26;19.20;92.50
68354;DHT22;55274;43.060;25.618;2022-11-20T03:11:52;19.20;92.80
68354;DHT22;55274;43.060;25.618;2022-11-20T03:14:18;19.20;92.40
68354;DHT22;55274;43.060;25.618;2022-11-20T03:16:44;19.20;92.50
68354;DHT22;55274;43.060;25.618;2022-11-20T03:19:11;19.20;92.40
68354;DHT22;55274;43.060;25.618;2022-11-20T03:21:37;19.10;92.30
68354;DHT22;55274;43.060;25.618;2022-11-20T03:24:04;19.10;92.30
68354;DHT22;55274;43.060;25.618;2022-11-20T03:26:30;19.20;92.30
68354;DHT22;55274;43.060;25.618;2022-11-20T03:28:58;19.20;91.90
68354;DHT22;55274;43.060;25.618;2022-11-20T03:31:26;19.20;91.70
68354;DHT22;55274;43.060;25.618;2022-11-20T03:33:52;19.20;91.90
68354;DHT22;55274;43.060;25.618;2022-11-20T03:36:19;19.10;92.10
68354;DHT22;55274;43.060;25.618;2022-11-20T03:38:46;19.10;92.00
68354;DHT22;55274;43.060;25.618;2022-11-20T03:41:21;19.10;92.10
68354;DHT22;55274;43.060;25.618;2022-11-20T03:43:58;19.10;92.30
68354;DHT22;55274;43.060;25.618;2022-11-20T03:46:25;19.20;92.10
68354;DHT22;55274;43.060;25.618;2022-11-20T03:48:52;19.20;91.90
68354;DHT22;55274;43.060;25.618;2022-11-20T03:51:26;19.30;91.60
68354;DHT22;55274;43.060;25.618;2022-11-20T03:53:54;19.30;91.20
68354;DHT22;55274;43.060;25.618;2022-11-20T03:56:24;19.30;91.10
68354;DHT22;55274;43.060;25.618;2022-11-20T03:58:50;19.40;91.10
68354;DHT22;55274;43.060;25.618;2022-11-20T04:01:24;19.30;90.90
68354;DHT22;55274;43.060;25.618;2022-11-20T04:03:52;19.40;90.70
68354;DHT22;55274;43.060;25.618;2022-11-20T04:06:24;19.40;90.70
68354;DHT22;55274;43.060;25.618;2022-11-20T04:08:51;19.30;90.70
68354;DHT22;55274;43.060;25.618;2022-11-20T04:11:25;19.30;90.70
68354;DHT22;55274;43.060;25.618;2022-11-20T04:13:53;19.30;90.70
68354;DHT22;55274;43.060;25.618;2022-11-20T04:16:20;19.20;91.20
68354;DHT22;55274;43.060;25.618;2022-11-20T04:18:47;19.10;91.50
68354;DHT22;55274;43.060;25.618;2022-11-20T04:21:16;19.10;91.20
68354;DHT22;55274;43.060;25.618;2022-11-20T04:23:42;19.00;92.10
68354;DHT22;55274;43.060;25.618;2022-11-20T04:26:09;18.90;92.10
68354;DHT22;55274;43.060;25.618;2022-11-20T04:28:36;18.90;92.20
68354;DHT22;55274;43.060;25.618;2022-11-20T04:31:06;18.80;92.30
68354;DHT22;55274;43.060;25.618;2022-11-20T04:33:33;18.90;92.10
68354;DHT22;55274;43.060;25.618;2022-11-20T04:36:07;18.90;91.90
68354;DHT22;55274;43.060;25.618;2022-11-20T04:38:35;18.80;92.40
68354;DHT22;55274;43.060;25.618;2022-11-20T04:41:05;18.70;92.70
68354;DHT22;55274;43.060;25.618;2022-11-20T04:43:32;18.70;92.70
68354;DHT22;55274;43.060;25.618;2022-11-20T04:46:00;18.60;92.80
68354;DHT22;55274;43.060;25.618;2022-11-20T04:48:27;18.70;92.80
68354;DHT22;55274;43.060;25.618;2022-11-20T04:50:54;18.70;92.80
68354;DHT22;55274;43.060;25.618;2022-11-20T04:53:21;18.70;92.50
68354;DHT22;55274;43.060;25.618;2022-11-20T04:55:48;18.60;92.90
68354;DHT22;55274;43.060;25.618;2022-11-20T04:58:14;18.50;93.20
68354;DHT22;55274;43.060;25.618;2022-11-20T05:00:40;18.40;93.60
68354;DHT22;55274;43.060;25.618;2022-11-20T05:03:06;18.40;93.60
68354;DHT22;55274;43.060;25.618;2022-11-20T05:05:34;18.60;92.80
68354;DHT22;55274;43.060;25.618;2022-11-20T05:08:00;18.70;92.10
68354;DHT22;55274;43.060;25.618;2022-11-20T05:10:26;18.80;91.80
68354;DHT22;55274;43.060;25.618;2022-11-20T05:12:52;18.90;91.30
68354;DHT22;55274;43.060;25.618;2022-11-20T05:15:18;18.80;91.50
68354;DHT22;55274;43.060;25.618;2022-11-20T05:17:48;18.80;91.90
68354;DHT22;55274;43.060;25.618;2022-11-20T05:20:14;18.90;91.20
68354;DHT22;55274;43.060;25.618;2022-11-20T05:22:40;18.80;91.60
68354;DHT22;55274;43.060;25.618;2022-11-20T05:25:06;18.70;92.10
68354;DHT22;55274;43.060;25.618;2022-11-20T05:27:32;18.60;92.10
68354;DHT22;55274;43.060;25.618;2022-11-20T05:29:58;18.50;92.80
68354;DHT22;55274;43.060;25.618;2022-11-20T05:32:23;18.30;93.70
68354;DHT22;55274;43.060;25.618;2022-11-20T05:34:52;18.30;93.50
68354;DHT22;55274;43.060;25.618;2022-11-20T05:37:20;18.40;92.80
68354;DHT22;55274;43.060;25.618;2022-11-20T05:39:46;18.50;91.60
68354;DHT22;55274;43.060;25.618;2022-11-20T05:42:12;18.60;91.60
68354;DHT22;55274;43.060;25.618;2022-11-20T05:44:57;18.60;91.90
68354;DHT22;55274;43.060;25.618;2022-11-20T05:47:23;18.70;91.20
68354;DHT22;55274;43.060;25.618;2022-11-20T05:49:49;18.70;91.00
68354;DHT22;55274;43.060;25.618;2022-11-20T05:52:14;18.80;90.40
68354;DHT22;55274;43.060;25.618;2022-11-20T05:54:40;18.90;90.10
68354;DHT22;55274;43.060;25.618;2022-11-20T05:57:06;18.80;89.90
68354;DHT22;55274;43.060;25.618;2022-11-20T05:59:32;18.90;90.40
68354;DHT22;55274;43.060;25.618;2022-11-20T06:01:57;18.80;90.50
68354;DHT22;55274;43.060;25.618;2022-11-20T06:04:23;18.80;90.20
68354;DHT22;55274;43.060;25.618;2022-11-20T06:06:49;18.80;89.80
68354;DHT22;55274;43.060;25.618;2022-11-20T06:09:15;18.90;90.10
68354;DHT22;55274;43.060;25.618;2022-11-20T06:11:40;18.90;90.30
68354;DHT22;55274;43.060;25.618;2022-11-20T06:14:06;18.80;90.80
68354;DHT22;55274;43.060;25.618;2022-11-20T06:16:32;18.70;90.70
68354;DHT22;55274;43.060;25.618;2022-11-20T06:18:58;18.70;91.20
68354;DHT22;55274;43.060;25.618;2022-11-20T06:21:24;18.60;91.70
68354;DHT22;55274;43.060;25.618;2022-11-20T06:23:50;18.70;91.10
68354;DHT22;55274;43.060;25.618;2022-11-20T06:26:20;18.60;91.00
68354;DHT22;55274;43.060;25.618;2022-11-20T06:28:47;18.60;91.10
68354;DHT22;55274;43.060;25.618;2022-11-20T06:31:15;18.60;91.40
68354;DHT22;55274;43.060;25.618;2022-11-20T06:33:42;18.70;92.10
68354;DHT22;55274;43.060;25.618;2022-11-20T06:36:09;18.80;91.40
68354;DHT22;55274;43.060;25.618;2022-11-20T06:38:35;18.50;86.10
68354;DHT22;55274;43.060;25.618;2022-11-20T06:41:01;18.10;85.70
68354;DHT22;55274;43.060;25.618;2022-11-20T06:43:28;17.80;85.40
68354;DHT22;55274;43.060;25.618;2022-11-20T06:45:56;17.60;85.20
68354;DHT22;55274;43.060;25.618;2022-11-20T06:48:23;17.20;85.60
68354;DHT22;55274;43.060;25.618;2022-11-20T06:50:49;17.00;86.40
68354;DHT22;55274;43.060;25.618;2022-11-20T06:53:15;16.70;86.90
68354;DHT22;55274;43.060;25.618;2022-11-20T06:55:45;16.60;86.80
68354;DHT22;55274;43.060;25.618;2022-11-20T06:58:12;16.70;86.50
68354;DHT22;55274;43.060;25.618;2022-11-20T07:00:38;16.70;86.20
68354;DHT22;55274;43.060;25.618;2022-11-20T07:03:04;16.40;87.10
68354;DHT22;55274;43.060;25.618;2022-11-20T07:05:30;16.30;87.20
68354;DHT22;55274;43.060;25.618;2022-11-20T07:07:57;16.10;87.00
68354;DHT22;55274;43.060;25.618;2022-11-20T07:10:23;16.10;87.70
68354;DHT22;55274;43.060;25.618;2022-11-20T07:12:51;16.00;87.60
68354;DHT22;55274;43.060;25.618;2022-11-20T07:15:19;15.80;88.90
68354;DHT22;55274;43.060;25.618;2022-11-20T07:17:45;15.60;89.30
68354;DHT22;55274;43.060;25.618;2022-11-20T07:20:12;15.60;90.00
68354;DHT22;55274;43.060;25.618;2022-11-20T07:22:38;15.30;91.00
68354;DHT22;55274;43.060;25.618;2022-11-20T07:25:04;15.20;91.20
68354;DHT22;55274;43.060;25.618;2022-11-20T07:27:30;14.90;92.20
68354;DHT22;55274;43.060;25.618;2022-11-20T07:29:56;14.80;92.80
68354;DHT22;55274;43.060;25.618;2022-11-20T07:32:22;14.70;93.40
68354;DHT22;55274;43.060;25.618;2022-11-20T07:34:48;14.50;94.30
68354;DHT22;55274;43.060;25.618;2022-11-20T07:37:15;14.40;94.60
68354;DHT22;55274;43.060;25.618;2022-11-20T07:39:41;14.30;95.00
68354;DHT22;55274;43.060;25.618;2022-11-20T07:42:08;14.00;96.40
68354;DHT22;55274;43.060;25.618;2022-11-20T07:44:34;13.90;97.00
68354;DHT22;55274;43.060;25.618;2022-11-20T07:47:00;13.80;97.70
68354;DHT22;55274;43.060;25.618;2022-11-20T07:49:25;13.80;98.30
68354;DHT22;55274;43.060;25.618;2022-11-20T07:51:51;13.70;98.50
68354;DHT22;55274;43.060;25.618;2022-11-20T07:54:20;13.80;98.50
68354;DHT22;55274;43.060;25.618;2022-11-20T07:56:46;13.80;98.60
68354;DHT22;55274;43.060;25.618;2022-11-20T07:59:12;13.70;98.70
68354;DHT22;55274;43.060;25.618;2022-11-20T08:01:39;13.70;99.10
68354;DHT22;55274;43.060;25.618;2022-11-20T08:04:05;13.70;99.10
68354;DHT22;55274;43.060;25.618;2022-11-20T08:06:31;13.50;99.70
68354;DHT22;55274;43.060;25.618;2022-11-20T08:08:57;13.50;99.90
68354;DHT22;55274;43.060;25.618;2022-11-20T08:11:23;13.50;99.90
68354;DHT22;55274;43.060;25.618;2022-11-20T08:14:07;13.60;99.90
68354;DHT22;55274;43.060;25.618;2022-11-20T08:16:40;13.40;99.90
68354;DHT22;55274;43.060;25.618;2022-11-20T08:19:06;13.40;99.90
68354;DHT22;55274;43.060;25.618;2022-11-20T08:21:33;13.20;99.90
68354;DHT22;55274;43.060;25.618;2022-11-20T08:23:59;13.20;99.90
68354;DHT22;55274;43.060;25.618;2022-11-20T08:26:25;13.20;99.90
68354;DHT22;55274;43.060;25.618;2022-11-20T08:28:55;13.20;99.90
68354;DHT22;55274;43.060;25.618;2022-11-20T08:31:22;13.20;99.90
68354;DHT22;55274;43.060;25.618;2022-11-20T08:33:49;13.10;99.90
68354;DHT22;55274;43.060;25.618;2022-11-20T08:36:15;13.10;99.90
68354;DHT22;55274;43.060;25.618;2022-11-20T08:38:40;13.00;99.90
68354;DHT22;55274;43.060;25.618;2022-11-20T08:41:06;13.00;99.90
68354;DHT22;55274;43.060;25.618;2022-11-20T08:44:01;13.00;99.90
68354;DHT22;55274;43.060;25.618;2022-11-20T08:46:31;13.00;99.90
68354;DHT22;55274;43.060;25.618;2022-11-20T08:48:59;13.00;99.90
68354;DHT22;55274;43.060;25.618;2022-11-20T08:51:25;13.00;99.90
68354;DHT22;55274;43.060;25.618;2022-11-20T08:53:51;13.00;99.90
68354;DHT22;55274;43.060;25.618;2022-11-20T08:56:17;13.00;99.90
68354;DHT22;55274;43.060;25.618;2022-11-20T08:58:43;12.90;99.90
68354;DHT22;55274;43.060;25.618;2022-11-20T09:01:09;12.90;99.90
68354;DHT22;55274;43.060;25.618;2022-11-20T09:03:35;12.80;99.90
68354;DHT22;55274;43.060;25.618;2022-11-20T09:06:06;12.90;99.90
68354;DHT22;55274;43.060;25.618;2022-11-20T09:08:33;12.80;99.90
68354;DHT22;55274;43.060;25.618;2022-11-20T09:10:59;12.70;99.90
68354;DHT22;55274;43.060;25.618;2022-11-20T09:13:27;12.70;99.90
68354;DHT22;55274;43.060;25.618;2022-11-20T09:15:54;12.70;99.90
68354;DHT22;55274;43.060;25.618;2022-11-20T09:18:20;12.70;99.90
68354;DHT22;55274;43.060;25.618;2022-11-20T09:20:48;12.80;99.90
68354;DHT22;55274;43.060;25.618;2022-11-20T09:23:14;12.80;99.90
68354;DHT22;55274;43.060;25.618;2022-11-20T09:25:41;12.80;99.90
68354;DHT22;55274;43.060;25.618;2022-11-20T09:28:07;12.80;99.90
68354;DHT22;55274;43.060;25.618;2022-11-20T09:30:32;12.80;99.90
68354;DHT22;55274;43.060;25.618;2022-11-20T09:32:58;12.80;99.90
68354;DHT22;55274;43.060;25.618;2022-11-20T09:35:24;12.90;99.90
68354;DHT22;55274;43.060;25.618;2022-11-20T09:37:50;12.80;99.90
68354;DHT22;55274;43.060;25.618;2022-11-20T09:40:25;12.90;99.90
68354;DHT22;55274;43.060;25.618;2022-11-20T09:54:18;13.00;99.90
68354;DHT22;55274;43.060;25.618;2022-11-20T09:56:48;13.00;99.90
68354;DHT22;55274;43.060;25.618;2022-11-20T09:59:29;13.00;99.90
68354;DHT22;55274;43.060;25.618;2022-11-20T10:01:56;12.90;99.90
68354;DHT22;55274;43.060;25.618;2022-11-20T10:04:23;12.90;99.90
68354;DHT22;55274;43.060;25.618;2022-11-20T10:09:32;13.00;99.90
68354;DHT22;55274;43.060;25.618;2022-11-20T10:23:00;13.00;99.90
68354;DHT22;55274;43.060;25.618;2022-11-20T10:25:39;13.00;99.90
68354;DHT22;55274;43.060;25.618;2022-11-20T10:30:38;13.00;99.90
68354;DHT22;55274;43.060;25.618;2022-11-20T10:33:17;13.00;99.90
68354;DHT22;55274;43.060;25.618;2022-11-20T10:41:28;13.00;99.90
68354;DHT22;55274;43.060;25.618;2022-11-20T10:46:25;13.00;99.90
68354;DHT22;55274;43.060;25.618;2022-11-20T10:48:53;13.10;99.90
68354;DHT22;55274;43.060;25.618;2022-11-20T10:51:37;13.10;99.90
68354;DHT22;55274;43.060;25.618;2022-11-20T10:56:50;13.10;99.90
68354;DHT22;55274;43.060;25.618;2022-11-20T10:59:50;13.30;99.90
68354;DHT22;55274;43.060;25.618;2022-11-20T11:02:23;13.30;99.90
68354;DHT22;55274;43.060;25.618;2022-11-20T11:04:53;13.40;99.90
68354;DHT22;55274;43.060;25.618;2022-11-20T11:09:57;13.40;99.90
68354;DHT22;55274;43.060;25.618;2022-11-20T11:12:28;13.40;99.90
68354;DHT22;55274;43.060;25.618;2022-11-20T11:14:56;13.50;99.90
68354;DHT22;55274;43.060;25.618;2022-11-20T11:17:31;13.50;99.90
68354;DHT22;55274;43.060;25.618;2022-11-20T11:22:56;13.50;99.90
68354;DHT22;55274;43.060;25.618;2022-11-20T11:27:54;13.60;99.90
68354;DHT22;55274;43.060;25.618;2022-11-20T11:30:22;13.60;99.90
68354;DHT22;55274;43.060;25.618;2022-11-20T11:32:49;13.60;99.90
68354;DHT22;55274;43.060;25.618;2022-11-20T11:35:27;13.60;99.90
68354;DHT22;55274;43.060;25.618;2022-11-20T11:38:02;13.60;99.90
68354;DHT22;55274;43.060;25.618;2022-11-20T11:40:31;13.70;99.90
68354;DHT22;55274;43.060;25.618;2022-11-20T11:43:03;13.70;99.90
68354;DHT22;55274;43.060;25.618;2022-11-20T11:45:29;13.80;99.90
68354;DHT22;55274;43.060;25.618;2022-11-20T11:48:00;13.80;99.90
68354;DHT22;55274;43.060;25.618;2022-11-20T11:50:29;13.80;99.90
68354;DHT22;55274;43.060;25.618;2022-11-20T11:53:14;13.80;99.90
68354;DHT22;55274;43.060;25.618;2022-11-20T11:56:15;13.70;99.90
68354;DHT22;55274;43.060;25.618;2022-11-20T11:58:47;13.70;99.90
68354;DHT22;55274;43.060;25.618;2022-11-20T12:01:33;13.70;99.90
68354;DHT22;55274;43.060;25.618;2022-11-20T12:06:31;13.80;99.90
68354;DHT22;55274;43.060;25.618;2022-11-20T12:09:04;13.80;99.90
68354;DHT22;55274;43.060;25.618;2022-11-20T12:16:42;13.80;99.90
68354;DHT22;55274;43.060;25.618;2022-11-20T12:19:11;13.80;99.90
68354;DHT22;55274;43.060;25.618;2022-11-20T12:21:59;13.80;99.90
68354;DHT22;55274;43.060;25.618;2022-11-20T12:56:40;13.80;99.90
68354;DHT22;55274;43.060;25.618;2022-11-20T12:58:53;13.70;99.90
68354;DHT22;55274;43.060;25.618;2022-11-20T13:06:51;13.50;99.90
68354;DHT22;55274;43.060;25.618;2022-11-20T13:09:19;13.50;99.90
68354;DHT22;55274;43.060;25.618;2022-11-20T13:14:42;13.50;99.90
68354;DHT22;55274;43.060;25.618;2022-11-20T13:17:19;13.40;99.90
68354;DHT22;55274;43.060;25.618;2022-11-20T13:19:57;13.30;99.90
68354;DHT22;55274;43.060;25.618;2022-11-20T13:22:43;13.30;99.90
68354;DHT22;55274;43.060;25.618;2022-11-20T13:25:21;13.30;99.90
68354;DHT22;55274;43.060;25.618;2022-11-20T13:27:47;13.30;99.90
68354;DHT22;55274;43.060;25.618;2022-11-20T13:30:17;13.20;99.90
68354;DHT22;55274;43.060;25.618;2022-11-20T13:33:22;13.20;99.90
68354;DHT22;55274;43.060;25.618;2022-11-20T13:36:00;13.10;99.90
68354;DHT22;55274;43.060;25.618;2022-11-20T13:38:27;13.00;99.90
68354;DHT22;55274;43.060;25.618;2022-11-20T13:46:02;13.00;99.90
68354;DHT22;55274;43.060;25.618;2022-11-20T13:48:38;13.00;99.90
68354;DHT22;55274;43.060;25.618;2022-11-20T13:56:45;12.90;99.90
68354;DHT22;55274;43.060;25.618;2022-11-20T14:02:00;12.80;99.90
68354;DHT22;55274;43.060;25.618;2022-11-20T14:04:32;12.70;99.90
68354;DHT22;55274;43.060;25.618;2022-11-20T14:06:59;12.70;99.90
68354;DHT22;55274;43.060;25.618;2022-11-20T14:09:30;12.70;99.90
68354;DHT22;55274;43.060;25.618;2022-11-20T14:11:57;12.60;99.90
68354;DHT22;55274;43.060;25.618;2022-11-20T14:14:25;12.60;99.90
68354;DHT22;55274;43.060;25.618;2022-11-20T14:16:52;12.60;99.90
68354;DHT22;55274;43.060;25.618;2022-11-20T14:21:55;12.60;99.90
68354;DHT22;55274;43.060;25.618;2022-11-20T14:24:31;12.70;99.90
68354;DHT22;55274;43.060;25.618;2022-11-20T14:26:57;12.60;99.90
68354;DHT22;55274;43.060;25.618;2022-11-20T14:29:29;12.70;99.90
68354;DHT22;55274;43.060;25.618;2022-11-20T14:31:56;12.60;99.90
68354;DHT22;55274;43.060;25.618;2022-11-20T14:34:25;12.60;99.90
68354;DHT22;55274;43.060;25.618;2022-11-20T14:36:56;12.60;99.90
68354;DHT22;55274;43.060;25.618;2022-11-20T14:39:35;12.60;99.90
68354;DHT22;55274;43.060;25.618;2022-11-20T14:42:01;12.60;99.90
68354;DHT22;55274;43.060;25.618;2022-11-20T14:44:33;12.50;99.90
68354;DHT22;55274;43.060;25.618;2022-11-20T14:47:03;12.50;99.90
68354;DHT22;55274;43.060;25.618;2022-11-20T14:49:30;12.30;99.90
68354;DHT22;55274;43.060;25.618;2022-11-20T14:52:16;12.40;99.90
68354;DHT22;55274;43.060;25.618;2022-11-20T14:54:53;12.40;99.90
68354;DHT22;55274;43.060;25.618;2022-11-20T14:57:28;12.30;99.90
68354;DHT22;55274;43.060;25.618;2022-11-20T15:02:42;12.20;99.90
68354;DHT22;55274;43.060;25.618;2022-11-20T15:05:09;12.20;99.90
68354;DHT22;55274;43.060;25.618;2022-11-20T15:07:37;12.10;99.90
68354;DHT22;55274;43.060;25.618;2022-11-20T15:10:08;12.10;99.90
68354;DHT22;55274;43.060;25.618;2022-11-20T15:12:37;12.10;99.90
68354;DHT22;55274;43.060;25.618;2022-11-20T15:15:05;12.10;99.90
68354;DHT22;55274;43.060;25.618;2022-11-20T15:17:32;12.10;99.90
68354;DHT22;55274;43.060;25.618;2022-11-20T15:20:01;12.10;99.90
68354;DHT22;55274;43.060;25.618;2022-11-20T15:22:27;12.10;99.90
68354;DHT22;55274;43.060;25.618;2022-11-20T15:24:53;12.10;99.90
68354;DHT22;55274;43.060;25.618;2022-11-20T15:27:19;12.10;99.90
68354;DHT22;55274;43.060;25.618;2022-11-20T15:29:44;12.20;99.90
68354;DHT22;55274;43.060;25.618;2022-11-20T15:32:10;12.20;99.90
68354;DHT22;55274;43.060;25.618;2022-11-20T15:34:36;12.20;99.90
68354;DHT22;55274;43.060;25.618;2022-11-20T15:37:02;12.10;99.90
68354;DHT22;55274;43.060;25.618;2022-11-20T15:39:27;12.10;99.90
68354;DHT22;55274;43.060;25.618;2022-11-20T15:41:53;12.10;99.90
68354;DHT22;55274;43.060;25.618;2022-11-20T15:44:19;12.10;99.90
68354;DHT22;55274;43.060;25.618;2022-11-20T15:46:45;12.10;99.90
68354;DHT22;55274;43.060;25.618;2022-11-20T15:49:16;12.10;99.90
68354;DHT22;55274;43.060;25.618;2022-11-20T15:51:47;12.10;99.90
68354;DHT22;55274;43.060;25.618;2022-11-20T15:54:16;12.10;99.90
68354;DHT22;55274;43.060;25.618;2022-11-20T15:56:49;12.10;99.90
68354;DHT22;55274;43.060;25.618;2022-11-20T15:59:17;12.10;99.90
68354;DHT22;55274;43.060;25.618;2022-11-20T16:01:43;12.10;99.90
68354;DHT22;55274;43.060;25.618;2022-11-20T16:04:16;12.10;99.90
68354;DHT22;55274;43.060;25.618;2022-11-20T16:06:43;12.10;99.90
68354;DHT22;55274;43.060;25.618;2022-11-20T16:09:09;12.00;99.90
68354;DHT22;55274;43.060;25.618;2022-11-20T16:11:35;11.90;99.90
68354;DHT22;55274;43.060;25.618;2022-11-20T16:14:03;11.90;99.90
68354;DHT22;55274;43.060;25.618;2022-11-20T16:16:47;11.90;99.90
68354;DHT22;55274;43.060;25.618;2022-11-20T16:19:14;12.00;99.90
68354;DHT22;55274;43.060;25.618;2022-11-20T16:21:41;12.00;99.90
68354;DHT22;55274;43.060;25.618;2022-11-20T16:24:09;12.00;99.90
68354;DHT22;55274;43.060;25.618;2022-11-20T16:26:36;12.00;99.90
68354;DHT22;55274;43.060;25.618;2022-11-20T16:29:03;12.10;99.90
68354;DHT22;55274;43.060;25.618;2022-11-20T16:31:30;12.10;99.90
68354;DHT22;55274;43.060;25.618;2022-11-20T16:33:58;12.10;99.90
68354;DHT22;55274;43.060;25.618;2022-11-20T16:36:26;12.10;99.90
68354;DHT22;55274;43.060;25.618;2022-11-20T16:38:58;12.20;99.90
68354;DHT22;55274;43.060;25.618;2022-11-20T16:41:25;12.20;99.90
68354;DHT22;55274;43.060;25.618;2022-11-20T16:43:57;12.20;99.90
68354;DHT22;55274;43.060;25.618;2022-11-20T16:46:24;12.10;99.90
68354;DHT22;55274;43.060;25.618;2022-11-20T16:48:55;12.20;99.90
68354;DHT22;55274;43.060;25.618;2022-11-20T16:51:22;12.20;99.90
68354;DHT22;55274;43.060;25.618;2022-11-20T16:53:49;12.20;99.90
68354;DHT22;55274;43.060;25.618;2022-11-20T16:56:24;12.20;99.90
68354;DHT22;55274;43.060;25.618;2022-11-20T16:58:50;12.20;99.90
68354;DHT22;55274;43.060;25.618;2022-11-20T17:01:18;12.30;99.90
68354;DHT22;55274;43.060;25.618;2022-11-20T17:03:52;12.30;99.90
68354;DHT22;55274;43.060;25.618;2022-11-20T17:06:20;12.30;99.90
68354;DHT22;55274;43.060;25.618;2022-11-20T17:08:47;12.20;99.90
68354;DHT22;55274;43.060;25.618;2022-11-20T17:11:15;12.20;99.90
68354;DHT22;55274;43.060;25.618;2022-11-20T17:13:41;12.20;99.90
68354;DHT22;55274;43.060;25.618;2022-11-20T17:16:16;12.20;99.90
68354;DHT22;55274;43.060;25.618;2022-11-20T17:18:42;12.20;99.90
68354;DHT22;55274;43.060;25.618;2022-11-20T17:21:09;12.20;99.90
68354;DHT22;55274;43.060;25.618;2022-11-20T17:23:37;12.20;99.90
68354;DHT22;55274;43.060;25.618;2022-11-20T17:26:06;12.20;99.90